sensor_id;sensor_type;location;lat;lon;timestamp;P1;durP1;ratioP1;P2;durP2;ratioP2
34405;SDS011;20658;45.630;8.886;2023-07-20T00:00:24;22.25;;;9.00;;
34405;SDS011;20658;45.630;8.886;2023-07-20T00:03:11;26.15;;;7.97;;
34405;SDS011;20658;45.630;8.886;2023-07-20T00:05:48;20.02;;;7.88;;
34405;SDS011;20658;45.630;8.886;2023-07-20T00:08:22;25.35;;;8.93;;
34405;SDS011;20658;45.630;8.886;2023-07-20T00:10:55;23.05;;;8.60;;
34405;SDS011;20658;45.630;8.886;2023-07-20T00:13:29;23.67;;;9.25;;
34405;SDS011;20658;45.630;8.886;2023-07-20T00:16:03;29.80;;;11.00;;
34405;SDS011;20658;45.630;8.886;2023-07-20T00:18:38;30.55;;;12.45;;
34405;SDS011;20658;45.630;8.886;2023-07-20T00:21:12;24.92;;;10.70;;
34405;SDS011;20658;45.630;8.886;2023-07-20T00:23:46;25.20;;;10.43;;
34405;SDS011;20658;45.630;8.886;2023-07-20T00:26:19;19.98;;;9.45;;
34405;SDS011;20658;45.630;8.886;2023-07-20T00:28:53;23.67;;;8.77;;
34405;SDS011;20658;45.630;8.886;2023-07-20T00:31:26;20.50;;;8.98;;
34405;SDS011;20658;45.630;8.886;2023-07-20T00:34:03;24.52;;;8.98;;
34405;SDS011;20658;45.630;8.886;2023-07-20T00:36:39;16.83;;;9.02;;
34405;SDS011;20658;45.630;8.886;2023-07-20T00:39:13;17.52;;;8.88;;
34405;SDS011;20658;45.630;8.886;2023-07-20T00:41:46;17.75;;;8.63;;
34405;SDS011;20658;45.630;8.886;2023-07-20T00:44:20;16.77;;;9.63;;
34405;SDS011;20658;45.630;8.886;2023-07-20T00:46:53;16.58;;;9.38;;
34405;SDS011;20658;45.630;8.886;2023-07-20T00:49:29;20.80;;;9.13;;
34405;SDS011;20658;45.630;8.886;2023-07-20T00:52:03;19.65;;;9.50;;
34405;SDS011;20658;45.630;8.886;2023-07-20T00:54:42;19.33;;;9.65;;
34405;SDS011;20658;45.630;8.886;2023-07-20T00:57:16;17.95;;;9.73;;
34405;SDS011;20658;45.630;8.886;2023-07-20T00:59:51;20.55;;;9.98;;
34405;SDS011;20658;45.630;8.886;2023-07-20T01:02:25;17.90;;;10.02;;
34405;SDS011;20658;45.630;8.886;2023-07-20T01:05:00;17.52;;;9.77;;
34405;SDS011;20658;45.630;8.886;2023-07-20T01:07:35;25.30;;;10.50;;
34405;SDS011;20658;45.630;8.886;2023-07-20T01:10:16;19.73;;;10.63;;
34405;SDS011;20658;45.630;8.886;2023-07-20T01:12:56;22.58;;;9.80;;
34405;SDS011;20658;45.630;8.886;2023-07-20T01:15:33;17.85;;;9.25;;
34405;SDS011;20658;45.630;8.886;2023-07-20T01:18:07;18.50;;;8.48;;
34405;SDS011;20658;45.630;8.886;2023-07-20T01:20:42;27.10;;;9.38;;
34405;SDS011;20658;45.630;8.886;2023-07-20T01:23:19;17.63;;;8.05;;
34405;SDS011;20658;45.630;8.886;2023-07-20T01:26:08;18.95;;;7.82;;
34405;SDS011;20658;45.630;8.886;2023-07-20T01:32:13;16.25;;;6.47;;
34405;SDS011;20658;45.630;8.886;2023-07-20T01:34:52;20.60;;;7.50;;
34405;SDS011;20658;45.630;8.886;2023-07-20T01:37:26;21.73;;;6.53;;
34405;SDS011;20658;45.630;8.886;2023-07-20T01:40:01;14.63;;;6.03;;
34405;SDS011;20658;45.630;8.886;2023-07-20T01:42:34;13.13;;;6.88;;
34405;SDS011;20658;45.630;8.886;2023-07-20T01:45:09;13.63;;;6.82;;
34405;SDS011;20658;45.630;8.886;2023-07-20T01:47:44;18.70;;;5.93;;
34405;SDS011;20658;45.630;8.886;2023-07-20T01:50:18;14.93;;;5.70;;
34405;SDS011;20658;45.630;8.886;2023-07-20T01:52:51;12.40;;;5.65;;
34405;SDS011;20658;45.630;8.886;2023-07-20T01:55:25;14.20;;;5.47;;
34405;SDS011;20658;45.630;8.886;2023-07-20T01:57:58;17.13;;;6.50;;
34405;SDS011;20658;45.630;8.886;2023-07-20T02:00:33;19.40;;;6.65;;
34405;SDS011;20658;45.630;8.886;2023-07-20T02:03:08;15.85;;;6.18;;
34405;SDS011;20658;45.630;8.886;2023-07-20T02:05:43;14.48;;;5.68;;
34405;SDS011;20658;45.630;8.886;2023-07-20T02:08:17;14.13;;;5.60;;
34405;SDS011;20658;45.630;8.886;2023-07-20T02:10:50;19.88;;;6.20;;
34405;SDS011;20658;45.630;8.886;2023-07-20T02:13:24;17.15;;;6.43;;
34405;SDS011;20658;45.630;8.886;2023-07-20T02:15:58;14.50;;;5.07;;
34405;SDS011;20658;45.630;8.886;2023-07-20T02:18:33;12.57;;;5.90;;
34405;SDS011;20658;45.630;8.886;2023-07-20T02:21:07;14.07;;;5.82;;
34405;SDS011;20658;45.630;8.886;2023-07-20T02:23:41;16.95;;;5.43;;
34405;SDS011;20658;45.630;8.886;2023-07-20T02:26:14;16.42;;;5.88;;
34405;SDS011;20658;45.630;8.886;2023-07-20T02:28:48;16.83;;;5.88;;
34405;SDS011;20658;45.630;8.886;2023-07-20T02:31:22;16.63;;;6.53;;
34405;SDS011;20658;45.630;8.886;2023-07-20T02:33:56;17.40;;;6.43;;
34405;SDS011;20658;45.630;8.886;2023-07-20T02:36:30;13.25;;;5.95;;
34405;SDS011;20658;45.630;8.886;2023-07-20T02:39:04;16.95;;;6.38;;
34405;SDS011;20658;45.630;8.886;2023-07-20T02:41:38;15.80;;;5.82;;
34405;SDS011;20658;45.630;8.886;2023-07-20T02:44:13;17.10;;;6.57;;
34405;SDS011;20658;45.630;8.886;2023-07-20T02:46:47;17.02;;;6.68;;
34405;SDS011;20658;45.630;8.886;2023-07-20T02:49:23;21.13;;;8.57;;
34405;SDS011;20658;45.630;8.886;2023-07-20T02:51:57;23.65;;;8.57;;
34405;SDS011;20658;45.630;8.886;2023-07-20T02:54:30;21.83;;;8.40;;
34405;SDS011;20658;45.630;8.886;2023-07-20T02:57:04;18.10;;;7.50;;
34405;SDS011;20658;45.630;8.886;2023-07-20T02:59:38;22.63;;;9.50;;
34405;SDS011;20658;45.630;8.886;2023-07-20T03:02:11;17.48;;;7.25;;
34405;SDS011;20658;45.630;8.886;2023-07-20T03:04:46;19.83;;;6.40;;
34405;SDS011;20658;45.630;8.886;2023-07-20T03:07:20;15.88;;;5.90;;
34405;SDS011;20658;45.630;8.886;2023-07-20T03:09:54;15.70;;;6.40;;
34405;SDS011;20658;45.630;8.886;2023-07-20T03:12:29;17.95;;;7.50;;
34405;SDS011;20658;45.630;8.886;2023-07-20T03:15:02;12.60;;;5.88;;
34405;SDS011;20658;45.630;8.886;2023-07-20T03:17:38;16.08;;;6.03;;
34405;SDS011;20658;45.630;8.886;2023-07-20T03:20:13;20.10;;;7.05;;
34405;SDS011;20658;45.630;8.886;2023-07-20T03:22:47;16.27;;;6.95;;
34405;SDS011;20658;45.630;8.886;2023-07-20T03:25:20;14.70;;;6.30;;
34405;SDS011;20658;45.630;8.886;2023-07-20T03:27:49;16.42;;;6.72;;
34405;SDS011;20658;45.630;8.886;2023-07-20T03:30:22;16.42;;;7.43;;
34405;SDS011;20658;45.630;8.886;2023-07-20T03:32:57;16.00;;;7.32;;
34405;SDS011;20658;45.630;8.886;2023-07-20T03:35:31;16.52;;;7.15;;
34405;SDS011;20658;45.630;8.886;2023-07-20T03:38:05;18.38;;;7.18;;
34405;SDS011;20658;45.630;8.886;2023-07-20T03:40:38;16.50;;;7.30;;
34405;SDS011;20658;45.630;8.886;2023-07-20T03:43:22;18.55;;;7.72;;
34405;SDS011;20658;45.630;8.886;2023-07-20T03:45:56;23.27;;;7.32;;
34405;SDS011;20658;45.630;8.886;2023-07-20T03:48:30;17.83;;;7.28;;
34405;SDS011;20658;45.630;8.886;2023-07-20T03:51:05;17.95;;;7.35;;
34405;SDS011;20658;45.630;8.886;2023-07-20T03:53:38;18.98;;;7.45;;
34405;SDS011;20658;45.630;8.886;2023-07-20T03:56:12;17.23;;;8.15;;
34405;SDS011;20658;45.630;8.886;2023-07-20T03:58:45;20.30;;;8.55;;
34405;SDS011;20658;45.630;8.886;2023-07-20T04:01:19;18.15;;;8.15;;
34405;SDS011;20658;45.630;8.886;2023-07-20T04:03:52;18.67;;;8.32;;
34405;SDS011;20658;45.630;8.886;2023-07-20T04:06:28;18.25;;;9.68;;
34405;SDS011;20658;45.630;8.886;2023-07-20T04:09:02;17.38;;;8.68;;
34405;SDS011;20658;45.630;8.886;2023-07-20T04:11:37;24.95;;;9.00;;
34405;SDS011;20658;45.630;8.886;2023-07-20T04:14:11;22.55;;;8.63;;
34405;SDS011;20658;45.630;8.886;2023-07-20T04:16:46;21.15;;;9.13;;
34405;SDS011;20658;45.630;8.886;2023-07-20T04:19:19;17.75;;;8.20;;
34405;SDS011;20658;45.630;8.886;2023-07-20T04:21:54;29.92;;;9.35;;
34405;SDS011;20658;45.630;8.886;2023-07-20T04:24:29;21.50;;;9.70;;
34405;SDS011;20658;45.630;8.886;2023-07-20T04:26:57;22.88;;;10.07;;
34405;SDS011;20658;45.630;8.886;2023-07-20T04:29:31;24.13;;;9.68;;
34405;SDS011;20658;45.630;8.886;2023-07-20T04:32:05;26.85;;;9.07;;
34405;SDS011;20658;45.630;8.886;2023-07-20T04:34:39;20.63;;;8.65;;
34405;SDS011;20658;45.630;8.886;2023-07-20T04:37:15;21.38;;;10.52;;
34405;SDS011;20658;45.630;8.886;2023-07-20T04:39:49;23.30;;;8.98;;
34405;SDS011;20658;45.630;8.886;2023-07-20T04:42:22;17.65;;;8.48;;
34405;SDS011;20658;45.630;8.886;2023-07-20T04:44:56;20.35;;;8.10;;
34405;SDS011;20658;45.630;8.886;2023-07-20T04:47:30;23.33;;;8.98;;
34405;SDS011;20658;45.630;8.886;2023-07-20T04:50:04;17.15;;;7.97;;
34405;SDS011;20658;45.630;8.886;2023-07-20T04:52:40;25.42;;;8.55;;
34405;SDS011;20658;45.630;8.886;2023-07-20T04:55:17;22.98;;;9.63;;
34405;SDS011;20658;45.630;8.886;2023-07-20T04:57:51;20.90;;;9.32;;
34405;SDS011;20658;45.630;8.886;2023-07-20T05:00:25;19.77;;;9.13;;
34405;SDS011;20658;45.630;8.886;2023-07-20T05:02:58;27.58;;;8.93;;
34405;SDS011;20658;45.630;8.886;2023-07-20T05:05:32;20.63;;;8.18;;
34405;SDS011;20658;45.630;8.886;2023-07-20T05:08:07;24.65;;;9.13;;
34405;SDS011;20658;45.630;8.886;2023-07-20T05:10:41;22.20;;;8.75;;
34405;SDS011;20658;45.630;8.886;2023-07-20T05:13:14;29.23;;;8.88;;
34405;SDS011;20658;45.630;8.886;2023-07-20T05:15:50;18.00;;;8.13;;
34405;SDS011;20658;45.630;8.886;2023-07-20T05:18:24;19.88;;;8.30;;
34405;SDS011;20658;45.630;8.886;2023-07-20T05:20:58;18.30;;;7.70;;
34405;SDS011;20658;45.630;8.886;2023-07-20T05:23:33;22.55;;;8.77;;
34405;SDS011;20658;45.630;8.886;2023-07-20T05:26:07;17.92;;;8.15;;
34405;SDS011;20658;45.630;8.886;2023-07-20T05:28:41;20.77;;;8.82;;
34405;SDS011;20658;45.630;8.886;2023-07-20T05:31:10;21.50;;;8.65;;
34405;SDS011;20658;45.630;8.886;2023-07-20T05:33:44;22.58;;;8.73;;
34405;SDS011;20658;45.630;8.886;2023-07-20T05:36:17;28.83;;;9.57;;
34405;SDS011;20658;45.630;8.886;2023-07-20T05:38:52;29.60;;;8.32;;
34405;SDS011;20658;45.630;8.886;2023-07-20T05:41:26;24.10;;;9.23;;
34405;SDS011;20658;45.630;8.886;2023-07-20T05:43:59;19.35;;;8.43;;
34405;SDS011;20658;45.630;8.886;2023-07-20T05:46:32;18.42;;;8.00;;
34405;SDS011;20658;45.630;8.886;2023-07-20T05:49:06;20.40;;;8.20;;
34405;SDS011;20658;45.630;8.886;2023-07-20T05:51:40;17.58;;;7.68;;
34405;SDS011;20658;45.630;8.886;2023-07-20T05:54:14;19.48;;;8.45;;
34405;SDS011;20658;45.630;8.886;2023-07-20T05:56:48;18.08;;;8.20;;
34405;SDS011;20658;45.630;8.886;2023-07-20T05:59:21;20.38;;;7.75;;
34405;SDS011;20658;45.630;8.886;2023-07-20T06:01:55;20.05;;;8.10;;
34405;SDS011;20658;45.630;8.886;2023-07-20T06:04:28;14.95;;;7.43;;
34405;SDS011;20658;45.630;8.886;2023-07-20T06:07:02;17.50;;;7.22;;
34405;SDS011;20658;45.630;8.886;2023-07-20T06:09:37;23.70;;;8.88;;
34405;SDS011;20658;45.630;8.886;2023-07-20T06:12:10;22.60;;;7.82;;
34405;SDS011;20658;45.630;8.886;2023-07-20T06:14:44;23.13;;;7.60;;
34405;SDS011;20658;45.630;8.886;2023-07-20T06:17:17;18.70;;;8.52;;
34405;SDS011;20658;45.630;8.886;2023-07-20T06:19:51;13.10;;;6.80;;
34405;SDS011;20658;45.630;8.886;2023-07-20T06:22:24;18.05;;;7.25;;
34405;SDS011;20658;45.630;8.886;2023-07-20T06:24:59;20.08;;;7.82;;
34405;SDS011;20658;45.630;8.886;2023-07-20T06:27:33;20.10;;;7.45;;
34405;SDS011;20658;45.630;8.886;2023-07-20T06:30:07;19.00;;;6.55;;
34405;SDS011;20658;45.630;8.886;2023-07-20T06:32:41;15.85;;;6.90;;
34405;SDS011;20658;45.630;8.886;2023-07-20T06:35:15;14.98;;;6.50;;
34405;SDS011;20658;45.630;8.886;2023-07-20T06:37:49;16.25;;;6.53;;
34405;SDS011;20658;45.630;8.886;2023-07-20T06:40:24;21.67;;;7.90;;
34405;SDS011;20658;45.630;8.886;2023-07-20T06:42:57;18.27;;;7.10;;
34405;SDS011;20658;45.630;8.886;2023-07-20T06:45:31;16.17;;;7.22;;
34405;SDS011;20658;45.630;8.886;2023-07-20T06:48:04;15.77;;;7.32;;
34405;SDS011;20658;45.630;8.886;2023-07-20T06:50:38;16.17;;;7.00;;
34405;SDS011;20658;45.630;8.886;2023-07-20T06:53:12;15.73;;;6.97;;
34405;SDS011;20658;45.630;8.886;2023-07-20T06:55:47;18.50;;;6.32;;
34405;SDS011;20658;45.630;8.886;2023-07-20T06:58:21;20.30;;;6.18;;
34405;SDS011;20658;45.630;8.886;2023-07-20T07:00:55;15.98;;;6.13;;
34405;SDS011;20658;45.630;8.886;2023-07-20T07:03:29;18.95;;;6.65;;
34405;SDS011;20658;45.630;8.886;2023-07-20T07:06:02;14.65;;;6.32;;
34405;SDS011;20658;45.630;8.886;2023-07-20T07:08:35;17.52;;;6.38;;
34405;SDS011;20658;45.630;8.886;2023-07-20T07:11:10;15.52;;;6.13;;
34405;SDS011;20658;45.630;8.886;2023-07-20T07:13:44;21.80;;;5.78;;
34405;SDS011;20658;45.630;8.886;2023-07-20T07:16:18;16.40;;;5.82;;
34405;SDS011;20658;45.630;8.886;2023-07-20T07:18:51;21.00;;;6.63;;
34405;SDS011;20658;45.630;8.886;2023-07-20T07:21:25;16.13;;;6.28;;
34405;SDS011;20658;45.630;8.886;2023-07-20T07:23:59;14.30;;;6.63;;
34405;SDS011;20658;45.630;8.886;2023-07-20T07:26:34;20.60;;;6.53;;
34405;SDS011;20658;45.630;8.886;2023-07-20T07:29:07;16.73;;;6.30;;
34405;SDS011;20658;45.630;8.886;2023-07-20T07:31:41;18.42;;;6.78;;
34405;SDS011;20658;45.630;8.886;2023-07-20T07:34:14;17.10;;;6.47;;
34405;SDS011;20658;45.630;8.886;2023-07-20T07:36:47;12.02;;;5.55;;
34405;SDS011;20658;45.630;8.886;2023-07-20T07:39:22;16.05;;;5.60;;
34405;SDS011;20658;45.630;8.886;2023-07-20T07:41:58;12.98;;;5.57;;
34405;SDS011;20658;45.630;8.886;2023-07-20T07:44:31;19.08;;;5.53;;
34405;SDS011;20658;45.630;8.886;2023-07-20T07:47:00;19.17;;;6.15;;
34405;SDS011;20658;45.630;8.886;2023-07-20T07:49:33;16.20;;;5.85;;
34405;SDS011;20658;45.630;8.886;2023-07-20T07:52:07;18.42;;;6.28;;
34405;SDS011;20658;45.630;8.886;2023-07-20T07:54:40;14.75;;;5.57;;
34405;SDS011;20658;45.630;8.886;2023-07-20T07:57:15;13.43;;;5.45;;
34405;SDS011;20658;45.630;8.886;2023-07-20T07:59:49;13.93;;;5.32;;
34405;SDS011;20658;45.630;8.886;2023-07-20T08:02:22;18.33;;;5.63;;
34405;SDS011;20658;45.630;8.886;2023-07-20T08:04:56;13.00;;;4.80;;
34405;SDS011;20658;45.630;8.886;2023-07-20T08:07:29;16.67;;;5.68;;
34405;SDS011;20658;45.630;8.886;2023-07-20T08:10:03;19.65;;;5.82;;
34405;SDS011;20658;45.630;8.886;2023-07-20T08:12:39;21.80;;;6.88;;
34405;SDS011;20658;45.630;8.886;2023-07-20T08:15:13;17.38;;;5.75;;
34405;SDS011;20658;45.630;8.886;2023-07-20T08:17:47;15.20;;;5.50;;
34405;SDS011;20658;45.630;8.886;2023-07-20T08:20:22;14.60;;;6.28;;
34405;SDS011;20658;45.630;8.886;2023-07-20T08:22:57;22.23;;;6.30;;
34405;SDS011;20658;45.630;8.886;2023-07-20T08:25:31;13.90;;;5.35;;
34405;SDS011;20658;45.630;8.886;2023-07-20T08:28:07;15.40;;;4.88;;
34405;SDS011;20658;45.630;8.886;2023-07-20T08:30:41;16.45;;;5.63;;
34405;SDS011;20658;45.630;8.886;2023-07-20T08:33:16;14.05;;;5.68;;
34405;SDS011;20658;45.630;8.886;2023-07-20T08:35:51;13.27;;;4.82;;
34405;SDS011;20658;45.630;8.886;2023-07-20T08:38:25;19.30;;;5.65;;
34405;SDS011;20658;45.630;8.886;2023-07-20T08:40:58;16.20;;;5.70;;
34405;SDS011;20658;45.630;8.886;2023-07-20T08:43:34;14.05;;;5.20;;
34405;SDS011;20658;45.630;8.886;2023-07-20T08:46:10;18.23;;;5.35;;
34405;SDS011;20658;45.630;8.886;2023-07-20T08:48:45;13.98;;;4.95;;
34405;SDS011;20658;45.630;8.886;2023-07-20T08:51:19;16.83;;;5.35;;
34405;SDS011;20658;45.630;8.886;2023-07-20T08:53:54;15.00;;;4.90;;
34405;SDS011;20658;45.630;8.886;2023-07-20T08:56:27;13.95;;;5.22;;
34405;SDS011;20658;45.630;8.886;2023-07-20T08:59:05;14.07;;;4.95;;
34405;SDS011;20658;45.630;8.886;2023-07-20T09:01:40;20.75;;;5.45;;
34405;SDS011;20658;45.630;8.886;2023-07-20T09:04:14;12.00;;;4.28;;
34405;SDS011;20658;45.630;8.886;2023-07-20T09:06:48;9.93;;;4.28;;
34405;SDS011;20658;45.630;8.886;2023-07-20T09:09:23;10.75;;;4.68;;
34405;SDS011;20658;45.630;8.886;2023-07-20T09:11:57;12.68;;;4.93;;
34405;SDS011;20658;45.630;8.886;2023-07-20T09:14:31;10.77;;;4.30;;
34405;SDS011;20658;45.630;8.886;2023-07-20T09:17:05;14.65;;;4.78;;
34405;SDS011;20658;45.630;8.886;2023-07-20T09:19:39;12.95;;;4.95;;
34405;SDS011;20658;45.630;8.886;2023-07-20T09:22:18;13.75;;;5.07;;
34405;SDS011;20658;45.630;8.886;2023-07-20T09:24:52;16.58;;;5.45;;
34405;SDS011;20658;45.630;8.886;2023-07-20T09:27:29;15.30;;;5.38;;
34405;SDS011;20658;45.630;8.886;2023-07-20T09:30:10;15.45;;;5.30;;
34405;SDS011;20658;45.630;8.886;2023-07-20T09:32:46;13.65;;;5.10;;
34405;SDS011;20658;45.630;8.886;2023-07-20T09:35:22;10.18;;;4.43;;
34405;SDS011;20658;45.630;8.886;2023-07-20T09:37:57;14.45;;;5.35;;
34405;SDS011;20658;45.630;8.886;2023-07-20T09:40:36;10.98;;;4.93;;
34405;SDS011;20658;45.630;8.886;2023-07-20T09:43:10;13.77;;;4.95;;
34405;SDS011;20658;45.630;8.886;2023-07-20T09:45:45;13.68;;;5.28;;
34405;SDS011;20658;45.630;8.886;2023-07-20T09:48:23;13.07;;;5.25;;
34405;SDS011;20658;45.630;8.886;2023-07-20T09:50:58;11.45;;;4.43;;
34405;SDS011;20658;45.630;8.886;2023-07-20T09:53:32;10.15;;;4.55;;
34405;SDS011;20658;45.630;8.886;2023-07-20T09:56:07;13.48;;;5.55;;
34405;SDS011;20658;45.630;8.886;2023-07-20T09:58:42;21.15;;;5.35;;
34405;SDS011;20658;45.630;8.886;2023-07-20T10:01:20;13.40;;;4.63;;
34405;SDS011;20658;45.630;8.886;2023-07-20T10:03:54;15.48;;;5.03;;
34405;SDS011;20658;45.630;8.886;2023-07-20T10:06:33;20.90;;;4.88;;
34405;SDS011;20658;45.630;8.886;2023-07-20T10:09:08;11.88;;;4.72;;
34405;SDS011;20658;45.630;8.886;2023-07-20T10:11:46;12.10;;;4.65;;
34405;SDS011;20658;45.630;8.886;2023-07-20T10:14:23;18.00;;;5.93;;
34405;SDS011;20658;45.630;8.886;2023-07-20T10:17:00;13.90;;;4.82;;
34405;SDS011;20658;45.630;8.886;2023-07-20T10:19:38;13.63;;;4.55;;
34405;SDS011;20658;45.630;8.886;2023-07-20T10:22:17;11.18;;;4.55;;
34405;SDS011;20658;45.630;8.886;2023-07-20T10:24:57;14.85;;;5.60;;
34405;SDS011;20658;45.630;8.886;2023-07-20T10:27:32;16.00;;;4.93;;
34405;SDS011;20658;45.630;8.886;2023-07-20T10:30:06;14.90;;;5.50;;
34405;SDS011;20658;45.630;8.886;2023-07-20T10:32:42;14.43;;;5.07;;
34405;SDS011;20658;45.630;8.886;2023-07-20T10:35:17;11.68;;;4.68;;
34405;SDS011;20658;45.630;8.886;2023-07-20T10:37:52;15.98;;;5.88;;
34405;SDS011;20658;45.630;8.886;2023-07-20T10:40:27;13.65;;;5.47;;
34405;SDS011;20658;45.630;8.886;2023-07-20T10:43:04;12.77;;;5.43;;
34405;SDS011;20658;45.630;8.886;2023-07-20T10:45:40;13.82;;;4.90;;
34405;SDS011;20658;45.630;8.886;2023-07-20T10:48:17;15.93;;;5.10;;
34405;SDS011;20658;45.630;8.886;2023-07-20T10:51:10;12.82;;;4.57;;
34405;SDS011;20658;45.630;8.886;2023-07-20T10:53:45;15.85;;;4.90;;
34405;SDS011;20658;45.630;8.886;2023-07-20T10:56:22;10.20;;;4.97;;
34405;SDS011;20658;45.630;8.886;2023-07-20T10:58:57;13.07;;;4.40;;
34405;SDS011;20658;45.630;8.886;2023-07-20T11:01:35;15.10;;;5.28;;
34405;SDS011;20658;45.630;8.886;2023-07-20T11:04:10;13.18;;;4.38;;
34405;SDS011;20658;45.630;8.886;2023-07-20T11:06:44;10.15;;;4.32;;
34405;SDS011;20658;45.630;8.886;2023-07-20T11:09:21;12.93;;;4.78;;
34405;SDS011;20658;45.630;8.886;2023-07-20T11:12:08;12.32;;;5.10;;
34405;SDS011;20658;45.630;8.886;2023-07-20T11:14:43;14.35;;;5.13;;
34405;SDS011;20658;45.630;8.886;2023-07-20T11:17:28;11.38;;;4.53;;
34405;SDS011;20658;45.630;8.886;2023-07-20T11:20:05;21.55;;;4.80;;
34405;SDS011;20658;45.630;8.886;2023-07-20T11:22:39;10.80;;;4.63;;
34405;SDS011;20658;45.630;8.886;2023-07-20T11:25:14;11.90;;;5.03;;
34405;SDS011;20658;45.630;8.886;2023-07-20T11:27:48;15.20;;;4.85;;
34405;SDS011;20658;45.630;8.886;2023-07-20T11:30:21;13.77;;;4.35;;
34405;SDS011;20658;45.630;8.886;2023-07-20T11:32:55;15.35;;;5.07;;
34405;SDS011;20658;45.630;8.886;2023-07-20T11:35:30;12.10;;;5.00;;
34405;SDS011;20658;45.630;8.886;2023-07-20T11:38:08;9.43;;;4.45;;
34405;SDS011;20658;45.630;8.886;2023-07-20T11:40:44;11.05;;;4.43;;
34405;SDS011;20658;45.630;8.886;2023-07-20T11:43:18;12.52;;;4.75;;
34405;SDS011;20658;45.630;8.886;2023-07-20T11:45:54;9.70;;;4.38;;
34405;SDS011;20658;45.630;8.886;2023-07-20T11:48:28;11.68;;;3.97;;
34405;SDS011;20658;45.630;8.886;2023-07-20T11:51:03;14.27;;;5.38;;
34405;SDS011;20658;45.630;8.886;2023-07-20T11:53:36;9.82;;;4.05;;
34405;SDS011;20658;45.630;8.886;2023-07-20T11:56:10;9.82;;;4.78;;
34405;SDS011;20658;45.630;8.886;2023-07-20T11:58:41;11.85;;;4.65;;
34405;SDS011;20658;45.630;8.886;2023-07-20T12:01:17;11.07;;;5.15;;
34405;SDS011;20658;45.630;8.886;2023-07-20T12:03:51;13.25;;;4.40;;
34405;SDS011;20658;45.630;8.886;2023-07-20T12:06:27;11.32;;;4.43;;
34405;SDS011;20658;45.630;8.886;2023-07-20T12:09:04;11.57;;;4.30;;
34405;SDS011;20658;45.630;8.886;2023-07-20T12:11:38;10.93;;;4.40;;
34405;SDS011;20658;45.630;8.886;2023-07-20T12:14:12;15.32;;;4.60;;
34405;SDS011;20658;45.630;8.886;2023-07-20T12:16:51;12.75;;;4.63;;
34405;SDS011;20658;45.630;8.886;2023-07-20T12:19:26;10.43;;;4.65;;
34405;SDS011;20658;45.630;8.886;2023-07-20T12:22:01;11.75;;;4.60;;
34405;SDS011;20658;45.630;8.886;2023-07-20T12:24:34;10.90;;;4.53;;
34405;SDS011;20658;45.630;8.886;2023-07-20T12:27:08;12.23;;;4.93;;
34405;SDS011;20658;45.630;8.886;2023-07-20T12:29:46;8.68;;;4.10;;
34405;SDS011;20658;45.630;8.886;2023-07-20T12:32:19;11.50;;;4.90;;
34405;SDS011;20658;45.630;8.886;2023-07-20T12:34:53;7.80;;;4.05;;
34405;SDS011;20658;45.630;8.886;2023-07-20T12:37:28;14.18;;;4.47;;
34405;SDS011;20658;45.630;8.886;2023-07-20T12:40:01;8.48;;;4.50;;
34405;SDS011;20658;45.630;8.886;2023-07-20T12:42:36;9.38;;;5.20;;
34405;SDS011;20658;45.630;8.886;2023-07-20T12:45:10;12.95;;;4.78;;
34405;SDS011;20658;45.630;8.886;2023-07-20T12:47:40;8.63;;;4.90;;
34405;SDS011;20658;45.630;8.886;2023-07-20T12:50:16;9.43;;;4.43;;
34405;SDS011;20658;45.630;8.886;2023-07-20T12:52:51;14.05;;;4.72;;
34405;SDS011;20658;45.630;8.886;2023-07-20T12:55:27;7.95;;;4.00;;
34405;SDS011;20658;45.630;8.886;2023-07-20T12:58:00;12.55;;;4.22;;
34405;SDS011;20658;45.630;8.886;2023-07-20T13:00:34;13.10;;;5.07;;
34405;SDS011;20658;45.630;8.886;2023-07-20T13:03:08;14.80;;;4.47;;
34405;SDS011;20658;45.630;8.886;2023-07-20T13:05:41;12.32;;;4.75;;
34405;SDS011;20658;45.630;8.886;2023-07-20T13:08:16;10.70;;;5.18;;
34405;SDS011;20658;45.630;8.886;2023-07-20T13:10:51;9.35;;;4.07;;
34405;SDS011;20658;45.630;8.886;2023-07-20T13:13:24;8.75;;;3.78;;
34405;SDS011;20658;45.630;8.886;2023-07-20T13:15:58;10.88;;;4.00;;
34405;SDS011;20658;45.630;8.886;2023-07-20T13:18:31;9.40;;;4.03;;
34405;SDS011;20658;45.630;8.886;2023-07-20T13:21:05;10.13;;;4.18;;
34405;SDS011;20658;45.630;8.886;2023-07-20T13:23:43;13.82;;;4.32;;
34405;SDS011;20658;45.630;8.886;2023-07-20T13:26:16;7.47;;;4.22;;
34405;SDS011;20658;45.630;8.886;2023-07-20T13:28:50;10.82;;;3.80;;
34405;SDS011;20658;45.630;8.886;2023-07-20T13:31:24;9.52;;;4.03;;
34405;SDS011;20658;45.630;8.886;2023-07-20T13:33:57;10.38;;;4.57;;
34405;SDS011;20658;45.630;8.886;2023-07-20T13:36:31;14.73;;;4.50;;
34405;SDS011;20658;45.630;8.886;2023-07-20T13:39:06;10.55;;;3.70;;
34405;SDS011;20658;45.630;8.886;2023-07-20T13:41:40;8.43;;;4.03;;
34405;SDS011;20658;45.630;8.886;2023-07-20T13:44:13;7.85;;;4.10;;
34405;SDS011;20658;45.630;8.886;2023-07-20T13:46:47;8.52;;;3.42;;
34405;SDS011;20658;45.630;8.886;2023-07-20T13:49:20;11.45;;;4.10;;
34405;SDS011;20658;45.630;8.886;2023-07-20T13:51:54;9.65;;;4.13;;
34405;SDS011;20658;45.630;8.886;2023-07-20T13:54:30;10.02;;;4.25;;
34405;SDS011;20658;45.630;8.886;2023-07-20T13:57:03;14.27;;;4.53;;
34405;SDS011;20658;45.630;8.886;2023-07-20T13:59:37;10.98;;;4.10;;
34405;SDS011;20658;45.630;8.886;2023-07-20T14:02:10;9.98;;;4.07;;
34405;SDS011;20658;45.630;8.886;2023-07-20T14:04:46;14.30;;;4.25;;
34405;SDS011;20658;45.630;8.886;2023-07-20T14:07:20;10.13;;;4.28;;
34405;SDS011;20658;45.630;8.886;2023-07-20T14:09:54;12.25;;;4.28;;
34405;SDS011;20658;45.630;8.886;2023-07-20T14:12:28;16.30;;;5.28;;
34405;SDS011;20658;45.630;8.886;2023-07-20T14:15:02;6.53;;;3.88;;
34405;SDS011;20658;45.630;8.886;2023-07-20T14:17:36;9.07;;;4.00;;
34405;SDS011;20658;45.630;8.886;2023-07-20T14:20:11;13.70;;;4.28;;
34405;SDS011;20658;45.630;8.886;2023-07-20T14:22:44;8.63;;;4.18;;
34405;SDS011;20658;45.630;8.886;2023-07-20T14:25:20;7.32;;;3.97;;
34405;SDS011;20658;45.630;8.886;2023-07-20T14:27:54;13.18;;;3.78;;
34405;SDS011;20658;45.630;8.886;2023-07-20T14:30:27;11.07;;;4.35;;
34405;SDS011;20658;45.630;8.886;2023-07-20T14:33:01;10.73;;;4.40;;
34405;SDS011;20658;45.630;8.886;2023-07-20T14:35:35;9.25;;;3.75;;
34405;SDS011;20658;45.630;8.886;2023-07-20T14:38:08;9.85;;;4.53;;
34405;SDS011;20658;45.630;8.886;2023-07-20T14:40:44;11.68;;;4.45;;
34405;SDS011;20658;45.630;8.886;2023-07-20T14:43:17;10.55;;;4.68;;
34405;SDS011;20658;45.630;8.886;2023-07-20T14:45:50;7.80;;;4.20;;
34405;SDS011;20658;45.630;8.886;2023-07-20T14:48:25;11.95;;;4.35;;
34405;SDS011;20658;45.630;8.886;2023-07-20T14:50:59;6.65;;;4.05;;
34405;SDS011;20658;45.630;8.886;2023-07-20T14:53:32;8.55;;;4.63;;
34405;SDS011;20658;45.630;8.886;2023-07-20T14:56:07;13.52;;;4.55;;
34405;SDS011;20658;45.630;8.886;2023-07-20T14:58:41;8.73;;;4.30;;
34405;SDS011;20658;45.630;8.886;2023-07-20T15:01:15;8.60;;;4.97;;
34405;SDS011;20658;45.630;8.886;2023-07-20T15:03:48;13.10;;;4.15;;
34405;SDS011;20658;45.630;8.886;2023-07-20T15:06:24;10.23;;;4.75;;
34405;SDS011;20658;45.630;8.886;2023-07-20T15:08:58;9.00;;;4.35;;
34405;SDS011;20658;45.630;8.886;2023-07-20T15:11:33;9.10;;;4.40;;
34405;SDS011;20658;45.630;8.886;2023-07-20T15:14:08;14.07;;;4.82;;
34405;SDS011;20658;45.630;8.886;2023-07-20T15:16:41;13.27;;;5.22;;
34405;SDS011;20658;45.630;8.886;2023-07-20T15:19:15;10.73;;;5.00;;
34405;SDS011;20658;45.630;8.886;2023-07-20T15:21:48;14.32;;;4.45;;